createdAt,value
2023-04-06T00:02:23.270Z,3.62
2023-04-06T00:04:52.572Z,3.57
2023-04-06T00:07:27.258Z,3.44
2023-04-06T00:09:56.727Z,3.39
2023-04-06T00:12:26.185Z,3.53
2023-04-06T00:14:56.083Z,3.34
2023-04-06T00:17:27.286Z,3.49
2023-04-06T00:19:56.666Z,3.50
2023-04-06T00:22:26.054Z,3.34
2023-04-06T00:27:30.325Z,3.35
2023-04-06T00:29:59.749Z,3.20
2023-04-06T00:32:31.431Z,3.32
2023-04-06T00:35:01.248Z,3.36
2023-04-06T00:37:30.879Z,3.29
2023-04-06T00:40:00.965Z,3.12
2023-04-06T00:42:30.508Z,3.23
2023-04-06T00:45:02.660Z,3.14
2023-04-06T00:47:36.785Z,3.17
2023-04-06T00:50:07.022Z,3.27
2023-04-06T00:52:37.084Z,3.32
2023-04-06T00:55:13.107Z,3.25
2023-04-06T00:57:45.899Z,3.27
2023-04-06T01:00:17.176Z,3.15
2023-04-06T01:02:50.862Z,3.20
2023-04-06T01:05:23.808Z,3.28
2023-04-06T01:07:56.900Z,3.19
2023-04-06T01:13:14.342Z,3.00
2023-04-06T01:15:56.842Z,3.17
2023-04-06T01:18:55.842Z,3.09
2023-04-06T01:21:40.492Z,3.08
2023-04-06T01:27:15.478Z,3.09
2023-04-06T01:30:00.203Z,3.02
2023-04-06T01:32:57.828Z,2.97
2023-04-06T01:38:26.375Z,2.96
2023-04-06T01:41:04.057Z,2.72
2023-04-06T01:43:40.687Z,2.87
2023-04-06T01:46:12.765Z,2.92
2023-04-06T01:48:45.391Z,2.55
2023-04-06T01:51:21.336Z,2.95
2023-04-06T01:54:04.160Z,2.86
2023-04-06T01:57:04.778Z,2.98
2023-04-06T01:59:48.747Z,2.75
2023-04-06T02:02:49.299Z,2.62
2023-04-06T02:05:24.660Z,2.87
2023-04-06T02:08:01.319Z,2.75
2023-04-06T02:10:37.333Z,2.86
2023-04-06T02:13:17.404Z,2.66
2023-04-06T02:15:51.736Z,2.72
2023-04-06T02:18:21.339Z,2.83
2023-04-06T02:20:56.778Z,2.72
2023-04-06T02:23:26.898Z,2.55
2023-04-06T02:25:56.187Z,2.61
2023-04-06T02:28:27.590Z,2.60
2023-04-06T02:30:57.678Z,2.56
2023-04-06T02:33:29.995Z,2.58
2023-04-06T02:36:02.330Z,2.58
2023-04-06T02:38:41.709Z,2.53
2023-04-06T02:41:11.183Z,2.47
2023-04-06T02:43:48.681Z,2.44
2023-04-06T02:46:30.785Z,2.46
2023-04-06T02:49:06.784Z,2.36
2023-04-06T02:51:37.644Z,2.45
2023-04-06T02:54:21.278Z,2.49
2023-04-06T02:56:50.701Z,2.42
2023-04-06T02:59:22.740Z,2.44
2023-04-06T03:02:12.055Z,2.39
2023-04-06T03:04:42.638Z,2.53
2023-04-06T03:07:21.794Z,2.63
2023-04-06T03:09:56.204Z,2.60
2023-04-06T03:12:36.515Z,2.65
2023-04-06T03:15:26.826Z,2.61
2023-04-06T03:18:10.081Z,2.29
2023-04-06T03:20:51.137Z,2.61
2023-04-06T03:23:23.158Z,2.70
2023-04-06T03:25:57.408Z,2.68
2023-04-06T03:28:26.974Z,2.73
2023-04-06T03:31:02.504Z,2.43
2023-04-06T03:33:49.294Z,2.45
2023-04-06T03:36:38.475Z,2.74
2023-04-06T03:39:08.811Z,2.75
2023-04-06T03:41:49.279Z,2.66
2023-04-06T03:44:34.127Z,2.72
2023-04-06T03:47:13.477Z,2.78
2023-04-06T03:49:54.976Z,2.78
2023-04-06T03:52:25.445Z,2.42
2023-04-06T03:55:01.383Z,2.79
2023-04-06T03:57:32.399Z,2.77
2023-04-06T04:00:01.847Z,2.82
2023-04-06T04:02:33.684Z,2.80
2023-04-06T04:05:03.202Z,2.95
2023-04-06T04:07:37.978Z,2.97
2023-04-06T04:10:09.627Z,2.91
2023-04-06T04:12:44.061Z,3.20
2023-04-06T04:15:13.660Z,3.19
2023-04-06T04:20:22.661Z,3.33
2023-04-06T04:22:52.456Z,3.40
2023-04-06T04:25:22.009Z,3.49
2023-04-06T04:27:52.758Z,3.58
2023-04-06T04:30:28.863Z,3.67
2023-04-06T04:33:05.385Z,3.73
2023-04-06T04:35:35.100Z,3.81
2023-04-06T04:38:04.661Z,3.87
2023-04-06T04:40:34.807Z,3.89
2023-04-06T04:43:16.110Z,3.94
2023-04-06T04:45:45.893Z,3.78
2023-04-06T04:48:40.782Z,4.04
2023-04-06T04:51:11.418Z,4.08
2023-04-06T04:54:10.219Z,4.10
2023-04-06T04:56:40.071Z,4.15
2023-04-06T04:59:43.785Z,4.02
2023-04-06T05:02:25.260Z,4.11
2023-04-06T05:05:20.427Z,3.99
2023-04-06T05:07:50.114Z,3.90
2023-04-06T05:10:31.859Z,3.92
2023-04-06T05:13:04.492Z,3.80
2023-04-06T05:15:40.462Z,3.83
2023-04-06T05:18:23.455Z,4.12
2023-04-06T05:23:49.090Z,3.84
2023-04-06T05:29:09.598Z,4.34
2023-04-06T05:34:16.589Z,4.41
2023-04-06T05:36:48.020Z,4.30
2023-04-06T05:39:23.908Z,4.23
2023-04-06T05:41:55.928Z,4.52
2023-04-06T05:44:32.040Z,4.52
2023-04-06T05:47:16.950Z,4.55
2023-04-06T05:49:50.162Z,4.66
2023-04-06T05:52:36.316Z,5.00
2023-04-06T05:55:07.548Z,5.01
2023-04-06T05:57:38.330Z,5.04
2023-04-06T06:00:15.693Z,5.13
2023-04-06T06:02:54.843Z,5.15
2023-04-06T06:05:38.776Z,5.17
2023-04-06T06:08:24.358Z,5.18
2023-04-06T06:13:30.129Z,5.11
2023-04-06T06:16:05.622Z,5.31
2023-04-06T06:18:55.856Z,5.44
2023-04-06T06:21:38.460Z,5.16
2023-04-06T06:24:24.249Z,5.65
2023-04-06T06:29:44.359Z,5.62
2023-04-06T06:32:14.165Z,5.70
2023-04-06T06:34:44.322Z,5.86
2023-04-06T06:37:14.515Z,5.91
2023-04-06T06:39:46.006Z,5.97
2023-04-06T06:42:15.412Z,5.98
2023-04-06T06:44:57.556Z,5.83
2023-04-06T06:47:27.390Z,5.80
2023-04-06T06:50:01.760Z,5.97
2023-04-06T06:52:32.484Z,6.17
2023-04-06T06:55:10.089Z,6.35
2023-04-06T06:57:56.905Z,6.51
2023-04-06T07:00:26.554Z,6.58
2023-04-06T07:02:56.665Z,6.69
2023-04-06T07:05:38.076Z,6.68
2023-04-06T07:08:15.422Z,6.76
2023-04-06T07:10:47.104Z,6.90
2023-04-06T07:13:23.214Z,6.94
2023-04-06T07:16:05.260Z,7.09
2023-04-06T07:18:36.246Z,7.25
2023-04-06T07:21:08.216Z,7.42
2023-04-06T07:23:38.094Z,7.35
2023-04-06T07:26:17.749Z,7.50
2023-04-06T07:28:47.081Z,7.64
2023-04-06T07:31:17.056Z,7.50
2023-04-06T07:33:47.667Z,7.80
2023-04-06T07:36:16.978Z,7.86
2023-04-06T07:38:47.300Z,7.93
2023-04-06T07:41:19.022Z,7.79
2023-04-06T07:43:49.318Z,8.11
2023-04-06T07:46:18.603Z,7.81
2023-04-06T07:48:47.931Z,8.32
2023-04-06T07:51:23.349Z,8.46
2023-04-06T07:53:53.664Z,8.60
2023-04-06T07:56:25.816Z,8.64
2023-04-06T07:58:56.283Z,8.64
2023-04-06T08:04:05.800Z,8.84
2023-04-06T08:06:41.966Z,8.86
2023-04-06T08:09:17.281Z,8.95
2023-04-06T08:11:49.425Z,9.06
2023-04-06T08:14:18.862Z,8.97
2023-04-06T08:16:48.503Z,9.20
2023-04-06T08:19:23.260Z,9.22
2023-04-06T08:21:52.856Z,9.30
2023-04-06T08:24:22.640Z,9.18
2023-04-06T08:26:54.190Z,9.37
2023-04-06T08:29:23.622Z,9.39
2023-04-06T08:31:59.434Z,9.49
2023-04-06T08:34:29.026Z,9.52
2023-04-06T08:36:58.592Z,9.61
2023-04-06T08:39:39.068Z,9.69
2023-04-06T08:42:28.857Z,9.72
2023-04-06T08:44:58.470Z,9.72
2023-04-06T08:47:33.049Z,9.69
2023-04-06T08:50:06.692Z,9.82
2023-04-06T08:52:36.298Z,9.96
2023-04-06T08:55:06.306Z,9.99
2023-04-06T08:57:42.053Z,9.84
2023-04-06T09:00:13.839Z,9.77
2023-04-06T09:02:51.635Z,9.73
2023-04-06T09:05:21.743Z,9.72
2023-04-06T09:08:02.341Z,9.84
2023-04-06T09:10:33.656Z,9.97
2023-04-06T09:13:08.911Z,10.15
2023-04-06T09:15:38.536Z,10.02
2023-04-06T09:18:08.970Z,10.24
2023-04-06T09:20:38.924Z,10.28
2023-04-06T09:23:08.211Z,10.13
2023-04-06T09:28:32.337Z,10.41
2023-04-06T09:31:04.290Z,10.42
2023-04-06T09:33:34.206Z,10.47
2023-04-06T09:36:03.879Z,10.45
2023-04-06T09:38:33.695Z,10.36
2023-04-06T09:41:08.188Z,10.58
2023-04-06T09:43:44.446Z,10.60
2023-04-06T09:46:15.049Z,10.76
2023-04-06T09:48:49.950Z,10.61
2023-04-06T09:51:23.199Z,10.72
2023-04-06T09:53:58.749Z,10.73
2023-04-06T09:56:33.321Z,10.83
2023-04-06T09:59:13.150Z,10.95
2023-04-06T10:01:43.142Z,10.97
2023-04-06T10:04:28.666Z,11.01
2023-04-06T10:06:58.688Z,10.98
2023-04-06T10:09:36.217Z,11.12
2023-04-06T10:12:13.715Z,11.02
2023-04-06T10:17:41.477Z,11.26
2023-04-06T10:20:15.542Z,11.33
2023-04-06T10:22:53.292Z,11.28
2023-04-06T10:25:43.458Z,11.34
2023-04-06T10:28:14.780Z,11.38
2023-04-06T10:30:49.937Z,11.50
2023-04-06T10:33:33.904Z,11.53
2023-04-06T10:36:13.166Z,11.66
2023-04-06T10:38:44.107Z,11.74
2023-04-06T10:41:14.957Z,11.77
2023-04-06T10:43:48.630Z,11.79
2023-04-06T10:49:15.256Z,11.51
2023-04-06T10:51:44.689Z,11.72
2023-04-06T10:54:15.426Z,11.73
2023-04-06T10:56:44.787Z,11.85
2023-04-06T10:59:27.439Z,11.85
2023-04-06T11:02:00.465Z,11.82
2023-04-06T11:04:30.597Z,11.74
2023-04-06T11:06:59.991Z,11.79
2023-04-06T11:09:52.793Z,11.82
2023-04-06T11:12:32.625Z,11.76
2023-04-06T11:15:05.048Z,12.06
2023-04-06T11:17:40.173Z,11.86
2023-04-06T11:20:13.899Z,12.02
2023-04-06T11:22:51.884Z,12.03
2023-04-06T11:28:09.182Z,12.08
2023-04-06T11:30:42.160Z,12.15
2023-04-06T11:33:13.574Z,11.91
2023-04-06T11:35:48.034Z,12.14
2023-04-06T11:38:17.424Z,12.18
2023-04-06T11:40:46.946Z,12.36
2023-04-06T11:43:16.640Z,12.22
2023-04-06T11:45:46.147Z,12.24
2023-04-06T11:48:26.360Z,12.33
2023-04-06T11:51:01.596Z,12.26
2023-04-06T11:53:31.652Z,12.23
2023-04-06T11:56:00.971Z,12.03
2023-04-06T11:58:30.422Z,12.29
2023-04-06T12:01:11.846Z,12.14
2023-04-06T12:03:44.509Z,12.20
2023-04-06T12:06:14.463Z,12.40
2023-04-06T12:08:43.713Z,12.22
2023-04-06T12:11:13.316Z,12.23
2023-04-06T12:13:47.929Z,12.06
2023-04-06T12:16:22.405Z,12.22
2023-04-06T12:18:54.386Z,12.27
2023-04-06T12:21:23.737Z,12.26
2023-04-06T12:23:53.066Z,12.23
2023-04-06T12:26:27.588Z,12.29
2023-04-06T12:28:56.960Z,12.28
2023-04-06T12:31:26.768Z,12.29
2023-04-06T12:33:58.014Z,12.45
2023-04-06T12:36:33.110Z,12.35
2023-04-06T12:39:03.475Z,12.17
2023-04-06T12:41:33.165Z,12.15
2023-04-06T12:44:07.722Z,12.31
2023-04-06T12:52:23.761Z,12.13
2023-04-06T12:54:53.406Z,12.11
2023-04-06T12:57:22.627Z,12.01
2023-04-06T12:59:52.129Z,12.23
2023-04-06T13:02:22.275Z,12.18
2023-04-06T13:05:01.750Z,12.12
2023-04-06T13:07:34.312Z,12.18
2023-04-06T13:10:03.822Z,12.28
2023-04-06T13:12:33.202Z,12.27
2023-04-06T13:15:02.470Z,12.16
2023-04-06T13:17:32.487Z,12.29
2023-04-06T13:20:02.015Z,12.09
2023-04-06T13:22:34.250Z,12.19
2023-04-06T13:25:09.292Z,12.23
2023-04-06T13:30:19.607Z,12.26
2023-04-06T13:32:49.183Z,11.91
2023-04-06T13:35:18.716Z,12.28
2023-04-06T13:37:52.351Z,12.20
2023-04-06T13:40:41.671Z,12.15
2023-04-06T13:43:27.355Z,12.19
2023-04-06T13:45:59.251Z,12.20
2023-04-06T13:48:28.880Z,11.95
2023-04-06T13:50:58.182Z,12.13
2023-04-06T13:53:29.532Z,12.14
2023-04-06T13:55:58.961Z,12.13
2023-04-06T13:58:28.175Z,12.16
2023-04-06T14:00:57.836Z,12.16
2023-04-06T14:03:27.152Z,12.16
2023-04-06T14:06:01.326Z,12.19
2023-04-06T14:08:36.090Z,12.13
2023-04-06T14:11:05.399Z,12.07
2023-04-06T14:13:58.725Z,11.96
2023-04-06T14:16:28.643Z,12.14
2023-04-06T14:18:58.352Z,11.82
2023-04-06T14:21:29.247Z,12.02
2023-04-06T14:24:01.021Z,12.05
2023-04-06T14:26:30.164Z,12.04
2023-04-06T14:28:59.529Z,11.96
2023-04-06T14:31:29.000Z,11.99
2023-04-06T14:33:58.168Z,11.98
2023-04-06T14:36:34.978Z,11.77
2023-04-06T14:39:07.467Z,11.94
2023-04-06T14:41:37.684Z,11.87
2023-04-06T14:44:07.204Z,11.82
2023-04-06T14:49:15.677Z,11.86
2023-04-06T14:51:52.190Z,11.70
2023-04-06T14:54:23.305Z,11.61
2023-04-06T14:56:56.318Z,11.56
2023-04-06T14:59:25.666Z,11.48
2023-04-06T15:01:55.061Z,11.55
2023-04-06T15:04:25.026Z,11.54
2023-04-06T15:06:54.703Z,11.61
2023-04-06T15:09:31.466Z,11.67
2023-04-06T15:12:01.029Z,11.53
2023-04-06T15:14:30.208Z,11.37
2023-04-06T15:17:00.596Z,11.39
2023-04-06T15:19:29.808Z,11.40
2023-04-06T15:22:00.773Z,11.35
2023-04-06T15:24:37.405Z,11.22
2023-04-06T15:27:07.248Z,11.24
2023-04-06T15:29:36.521Z,11.27
2023-04-06T15:32:11.330Z,11.17
2023-04-06T15:34:40.690Z,11.12
2023-04-06T15:37:10.210Z,10.96
2023-04-06T15:39:41.520Z,11.09
2023-04-06T15:42:10.726Z,10.99
2023-04-06T15:44:40.137Z,10.58
2023-04-06T15:47:09.791Z,10.74
2023-04-06T15:49:39.113Z,10.72
2023-04-06T15:52:18.454Z,10.80
2023-04-06T15:54:50.068Z,10.78
2023-04-06T15:57:24.693Z,10.72
2023-04-06T15:59:54.950Z,10.73
2023-04-06T16:02:29.726Z,10.47
2023-04-06T16:05:02.344Z,10.40
2023-04-06T16:07:39.276Z,10.44
2023-04-06T16:10:12.379Z,10.57
2023-04-06T16:12:46.740Z,10.35
2023-04-06T16:15:16.431Z,10.15
2023-04-06T16:17:46.151Z,10.02
2023-04-06T16:20:16.094Z,9.84
2023-04-06T16:22:50.400Z,10.07
2023-04-06T16:25:26.995Z,10.10
2023-04-06T16:27:56.501Z,10.04
2023-04-06T16:30:35.033Z,9.83
2023-04-06T16:33:04.385Z,9.88
2023-04-06T16:35:34.015Z,9.62
2023-04-06T16:38:03.325Z,9.61
2023-04-06T16:40:39.878Z,9.63
2023-04-06T16:43:09.506Z,9.71
2023-04-06T16:45:38.930Z,9.68
2023-04-06T16:48:08.509Z,9.54
2023-04-06T16:50:38.665Z,9.59
2023-04-06T16:53:07.907Z,9.58
2023-04-06T16:55:42.888Z,9.45
2023-04-06T17:00:52.140Z,9.33
2023-04-06T17:03:21.741Z,9.40
2023-04-06T17:05:51.100Z,9.34
2023-04-06T17:08:21.577Z,9.22
2023-04-06T17:11:02.708Z,9.16
2023-04-06T17:13:33.751Z,9.10
2023-04-06T17:16:03.184Z,9.06
2023-04-06T17:18:37.887Z,8.91
2023-04-06T17:21:09.768Z,8.82
2023-04-06T17:23:44.500Z,8.83
2023-04-06T17:26:16.006Z,8.66
2023-04-06T17:28:50.711Z,8.92
2023-04-06T17:31:22.060Z,8.86
2023-04-06T17:33:56.669Z,8.70
2023-04-06T17:36:27.629Z,8.67
2023-04-06T17:38:57.179Z,8.80
2023-04-06T17:41:32.169Z,8.68
2023-04-06T17:46:47.065Z,8.67
2023-04-06T17:49:16.578Z,8.65
2023-04-06T17:51:45.905Z,8.52
2023-04-06T17:54:15.428Z,8.23
2023-04-06T17:56:48.773Z,8.22
2023-04-06T17:59:20.682Z,8.34
2023-04-06T18:02:05.751Z,8.29
2023-04-06T18:04:35.218Z,8.31
2023-04-06T18:07:04.857Z,8.35
2023-04-06T18:09:34.233Z,8.23
2023-04-06T18:12:05.536Z,8.18
2023-04-06T18:14:40.934Z,8.02
2023-04-06T18:17:10.347Z,8.11
2023-04-06T18:19:44.702Z,8.01
2023-04-06T18:22:14.214Z,7.85
2023-04-06T18:24:43.654Z,7.88
2023-04-06T18:27:16.134Z,7.80
2023-04-06T18:29:50.656Z,7.72
2023-04-06T18:32:20.151Z,7.62
2023-04-06T18:34:49.789Z,7.56
2023-04-06T18:37:24.228Z,7.49
2023-04-06T18:42:36.009Z,7.30
2023-04-06T18:45:06.010Z,7.31
2023-04-06T18:47:35.714Z,7.40
2023-04-06T18:50:05.727Z,7.29
2023-04-06T18:52:35.676Z,7.12
2023-04-06T18:55:05.437Z,7.10
2023-04-06T18:57:37.034Z,7.12
2023-04-06T19:00:08.072Z,6.99
2023-04-06T19:02:42.711Z,7.05
2023-04-06T19:05:13.079Z,7.06
2023-04-06T19:07:48.113Z,6.86
2023-04-06T19:10:17.534Z,6.88
2023-04-06T19:12:49.440Z,6.91
2023-04-06T19:15:19.063Z,6.77
2023-04-06T19:17:49.562Z,6.82
2023-04-06T19:20:24.570Z,6.79
2023-04-06T19:22:59.328Z,6.62
2023-04-06T19:25:28.570Z,6.67
2023-04-06T19:28:00.641Z,6.52
2023-04-06T19:30:30.202Z,6.56
2023-04-06T19:33:00.052Z,6.44
2023-04-06T19:35:29.663Z,6.57
2023-04-06T19:37:58.773Z,6.40
2023-04-06T19:40:28.261Z,6.37
2023-04-06T19:42:59.507Z,6.40
2023-04-06T19:45:29.524Z,6.34
2023-04-06T19:47:58.759Z,6.30
2023-04-06T19:50:28.334Z,6.25
2023-04-06T19:52:59.303Z,6.16
2023-04-06T19:55:28.882Z,6.14
2023-04-06T19:58:00.373Z,6.01
2023-04-06T20:03:15.356Z,5.84
2023-04-06T20:05:45.054Z,5.62
2023-04-06T20:08:14.451Z,5.98
2023-04-06T20:10:48.888Z,5.92
2023-04-06T20:13:20.624Z,5.94
2023-04-06T20:15:57.909Z,5.90
2023-04-06T20:21:09.886Z,5.73
2023-04-06T20:23:39.188Z,5.67
2023-04-06T20:26:21.323Z,5.62
2023-04-06T20:28:57.728Z,5.61
2023-04-06T20:31:29.115Z,5.41
2023-04-06T20:33:58.629Z,5.53
2023-04-06T20:36:28.765Z,5.36
2023-04-06T20:38:58.040Z,5.45
2023-04-06T20:41:28.184Z,5.32
2023-04-06T20:44:04.738Z,5.08
2023-04-06T20:46:42.912Z,5.21
2023-04-06T20:49:20.097Z,4.87
2023-04-06T20:51:49.530Z,4.73
2023-04-06T20:54:21.258Z,5.09
2023-04-06T20:56:52.173Z,5.16
2023-04-06T20:59:29.337Z,3.50
2023-04-06T21:01:59.344Z,3.30
2023-04-06T21:04:29.351Z,4.66
2023-04-06T21:06:58.618Z,4.85
2023-04-06T21:09:36.104Z,4.77
2023-04-06T21:14:43.309Z,4.57
2023-04-06T21:17:13.297Z,4.66
2023-04-06T21:19:42.468Z,4.63
2023-04-06T21:22:16.798Z,4.54
2023-04-06T21:24:47.717Z,4.47
2023-04-06T21:27:22.027Z,4.48
2023-04-06T21:29:58.384Z,4.44
2023-04-06T21:32:34.368Z,4.43
2023-04-06T21:35:04.050Z,4.37
2023-04-06T21:37:33.310Z,4.32
2023-04-06T21:40:03.889Z,4.30
2023-04-06T21:42:33.767Z,4.23
2023-04-06T21:45:05.586Z,4.23
2023-04-06T21:47:36.313Z,4.17
2023-04-06T21:50:11.214Z,4.05
2023-04-06T21:52:40.677Z,4.08
2023-04-06T21:55:10.806Z,4.12
2023-04-06T21:57:40.076Z,4.02
2023-04-06T22:00:12.830Z,4.00
2023-04-06T22:02:51.992Z,4.02
2023-04-06T22:05:21.595Z,3.93
2023-04-06T22:07:51.853Z,3.91
2023-04-06T22:10:21.795Z,3.82
2023-04-06T22:12:51.681Z,3.75
2023-04-06T22:15:22.721Z,3.71
2023-04-06T22:17:52.148Z,3.68
2023-04-06T22:20:21.480Z,3.44
2023-04-06T22:22:50.788Z,3.59
2023-04-06T22:25:20.157Z,3.61
2023-04-06T22:27:49.491Z,3.64
2023-04-06T22:30:18.847Z,3.50
2023-04-06T22:33:00.197Z,3.51
2023-04-06T22:35:29.569Z,3.41
2023-04-06T22:38:00.398Z,3.49
2023-04-06T22:40:34.804Z,3.47
2023-04-06T22:43:04.073Z,3.44
2023-04-06T22:45:33.506Z,3.40
2023-04-06T22:48:04.886Z,3.40
2023-04-06T22:50:34.255Z,3.40
2023-04-06T22:53:03.727Z,3.39
2023-04-06T22:55:40.722Z,3.32
2023-04-06T22:58:09.839Z,3.39
2023-04-06T23:00:39.025Z,3.30
2023-04-06T23:03:15.393Z,3.17
2023-04-06T23:05:45.453Z,3.24
2023-04-06T23:08:14.591Z,3.27
2023-04-06T23:10:52.541Z,2.98
2023-04-06T23:13:21.665Z,3.12
2023-04-06T23:15:56.063Z,3.25
2023-04-06T23:18:27.320Z,3.15
2023-04-06T23:20:56.616Z,3.20
2023-04-06T23:23:26.015Z,3.22
2023-04-06T23:25:55.428Z,3.18
2023-04-06T23:30:59.841Z,3.14
2023-04-06T23:33:35.621Z,2.82
2023-04-06T23:36:04.933Z,3.15
2023-04-06T23:38:34.164Z,3.07
2023-04-06T23:41:08.362Z,2.97
2023-04-06T23:43:37.716Z,3.04
2023-04-06T23:46:06.810Z,3.00
2023-04-06T23:48:39.096Z,2.96
2023-04-06T23:51:08.569Z,2.93
2023-04-06T23:53:37.839Z,3.06
2023-04-06T23:56:12.121Z,2.94
2023-04-06T23:58:41.548Z,2.92
